Sherwood, OH (43556)

1:14 AM EST on December 06, 2016 (GMT -0500)
Ney East | | Change Station

Elev 715 ft 41.38 °N, 84.51 °W | Updated 17 seconds ago

Clear
Clear
29.5 °F
Feels Like 25 °F
N
4.0
Wind Variable Wind from ESE

Today
High -- | Low -- °F
--% Chance of Precip.
Yesterday
High -- | Low -- °F
Precip. -- in
Pressure 30.00 in
Visibility 7.0 miles
Clouds Clear
Windchill 25 °F
Dew Point 29 °F
Humidity 98%
Rainfall 0.00 in
Snow Depth Not available.
7:49 AM 5:08 PM
Waxing Crescent, 38% visible
METAR KDFI 060553Z AUTO 07006KT 7SM CLR M01/M03 A2998 RMK AO2 SLP158 I6001 T10061033 11006 21022 58018
Pressure 30.00 in
Visibility 7.0 miles
Clouds Clear
Windchill 25 °F
Dew Point 29 °F
Humidity 98%
Rainfall 0.00 in
Snow Depth Not available.
7:49 AM 5:08 PM
Waxing Crescent, 38% visible
METAR KDFI 060553Z AUTO 07006KT 7SM CLR M01/M03 A2998 RMK AO2 SLP158 I6001 T10061033 11006 21022 58018

10-Day Weather Forecast

Almanac

Astronomy

Dec. 06, 2016 Rise Set
Actual Time
Civil Twilight
Nautical Twilight
Astronomical Twilight
Moon
Length of Visible Light
Length of Day
Tomorrow will be .
, % of the Moon is Illuminated

Today's Extremes

State Highs State Lows

Community

WunderPhotos

Upload Photos

1,955,932 photos uploaded!

WunderBlog® & News

Nearby

Air Quality

  Air Quality AQ Index Pollutant
Not available.

Snow Depth

Station Depth Elevation

Earthquake Activity

City Distance Mag. Time & Date
Minimum magnitude displayed is 2.5.

Coastal Water Temperatures

Place Temperature

Stations

Nearby Weather Stations

Station Location Temp. Windchill Dew Point Humidity Wind Precip. Elev Updated Type
                   

Watches & Warnings

There are currently no watches in effect.